Time;durP1;ratioP1;P1;durP2;ratioP2;P2;SDS_P1;SDS_P2;PMS_P1;PMS_P2;Temp;Humidity;BMP_temperature;BMP_pressure;BME280_temperature;BME280_humidity;BME280_pressure;Samples;Min_cycle;Max_cycle;Signal;HPM_P1;HPM_P2
2024/02/13 00:01:41;;;;;;;1999.90;999.90;;;5.90;99.90;;;;;;4954416;28;20835;-73
2024/02/13 00:04:10;;;;;;;1999.90;999.90;;;5.90;99.90;;;;;;4954182;28;20462;-72
2024/02/13 00:06:37;;;;;;;1999.90;999.90;;;5.90;99.90;;;;;;4954250;29;20422;-72
2024/02/13 00:09:04;;;;;;;1999.90;999.90;;;5.60;99.90;;;;;;4953891;28;20449;-72
2024/02/13 00:11:30;;;;;;;1999.90;999.90;;;6.00;99.90;;;;;;4954178;28;20414;-73
2024/02/13 00:13:56;;;;;;;1999.90;999.90;;;6.00;99.90;;;;;;4954139;28;20454;-72
2024/02/13 00:16:22;;;;;;;1999.90;999.90;;;5.90;99.90;;;;;;4953993;28;20399;-71
2024/02/13 00:18:49;;;;;;;1999.90;999.90;;;5.90;99.90;;;;;;4953864;28;20465;-71
2024/02/13 00:21:15;;;;;;;1999.90;999.90;;;6.00;99.90;;;;;;4954010;28;20407;-71
2024/02/13 00:23:40;;;;;;;1999.90;999.90;;;6.20;99.90;;;;;;4953905;28;20466;-73
2024/02/13 00:26:09;;;;;;;1999.90;999.90;;;5.90;99.90;;;;;;4953933;28;20837;-73
2024/02/13 00:28:38;;;;;;;1999.90;999.90;;;5.90;99.90;;;;;;4953964;28;20218;-72
2024/02/13 00:31:07;;;;;;;1999.90;999.90;;;5.80;99.90;;;;;;4953750;28;20410;-70
2024/02/13 00:33:34;;;;;;;1999.90;999.90;;;5.80;99.90;;;;;;4953666;28;20516;-72
2024/02/13 00:36:01;;;;;;;1999.90;999.90;;;5.80;99.90;;;;;;4953342;28;20494;-72
2024/02/13 00:38:29;;;;;;;1999.90;999.90;;;5.70;99.90;;;;;;4953601;28;20407;-72
2024/02/13 00:40:54;;;;;;;1999.90;999.90;;;5.80;99.90;;;;;;4953795;28;20413;-72
2024/02/13 00:43:20;;;;;;;1999.90;999.90;;;5.80;99.90;;;;;;4953586;28;20450;-73
2024/02/13 00:45:49;;;;;;;1999.90;999.90;;;5.70;99.90;;;;;;4953842;28;20171;-72
2024/02/13 00:48:19;;;;;;;1999.90;999.90;;;5.70;99.90;;;;;;4953751;28;20512;-72
2024/02/13 00:50:46;;;;;;;1999.90;999.90;;;5.60;99.90;;;;;;4953615;28;20903;-71
2024/02/13 00:53:14;;;;;;;1999.90;999.90;;;5.50;99.90;;;;;;4953450;28;20490;-71
2024/02/13 00:55:40;;;;;;;1999.90;999.90;;;5.50;99.90;;;;;;4953821;28;20414;-71
2024/02/13 00:58:06;;;;;;;1999.90;999.90;;;5.60;99.90;;;;;;4953624;28;20907;-71
2024/02/13 01:00:33;;;;;;;1999.90;999.90;;;5.50;99.90;;;;;;4953435;28;20175;-73
2024/02/13 01:02:58;;;;;;;1999.90;999.90;;;5.40;99.90;;;;;;4953581;28;20514;-73
2024/02/13 01:05:24;;;;;;;1999.90;999.90;;;5.40;99.90;;;;;;4953539;28;20485;-73
2024/02/13 01:07:51;;;;;;;1999.90;999.90;;;5.40;99.90;;;;;;4953549;28;20175;-72
2024/02/13 01:10:18;;;;;;;1999.90;999.90;;;6.80;99.90;;;;;;4953279;28;20167;-72
2024/02/13 01:12:44;;;;;;;1999.90;999.90;;;5.10;99.90;;;;;;4953521;28;20462;-73
2024/02/13 01:15:10;;;;;;;1999.90;999.90;;;5.10;99.90;;;;;;4953484;28;20494;-72
2024/02/13 01:17:36;;;;;;;1999.90;999.90;;;5.20;99.90;;;;;;4953432;28;20821;-72
2024/02/13 01:20:03;;;;;;;1999.90;999.90;;;5.20;99.90;;;;;;4953178;28;20210;-72
2024/02/13 01:22:29;;;;;;;1999.90;999.90;;;5.20;99.90;;;;;;4953604;28;20411;-74
2024/02/13 01:24:56;;;;;;;1999.90;999.90;;;5.20;99.90;;;;;;4953321;28;20450;-73
2024/02/13 01:27:22;;;;;;;1999.90;999.90;;;5.10;99.90;;;;;;4953452;28;20175;-72
2024/02/13 01:29:48;;;;;;;1999.90;999.90;;;5.10;99.90;;;;;;4953057;28;20498;-72
2024/02/13 01:32:16;;;;;;;1999.90;999.90;;;5.10;99.90;;;;;;4953391;28;20439;-72
2024/02/13 01:34:42;;;;;;;1999.90;999.90;;;5.20;99.90;;;;;;4953162;28;20434;-71
2024/02/13 01:37:07;;;;;;;1999.90;999.90;;;5.30;99.90;;;;;;4953608;28;20410;-71
2024/02/13 01:39:33;;;;;;;1999.90;999.90;;;5.30;99.90;;;;;;4953067;28;20410;-71
2024/02/13 01:41:59;;;;;;;1999.90;999.90;;;5.40;99.90;;;;;;4953244;28;20194;-72
2024/02/13 01:44:27;;;;;;;1999.90;999.90;;;5.40;99.90;;;;;;4953139;28;20354;-72
2024/02/13 01:46:52;;;;;;;1999.90;999.90;;;5.40;99.90;;;;;;4953160;28;20234;-72
2024/02/13 01:49:19;;;;;;;1999.90;999.90;;;5.40;99.90;;;;;;4955926;28;20489;-72
2024/02/13 01:51:47;;;;;;;1999.90;999.90;;;5.40;99.90;;;;;;4956734;28;20171;-72
2024/02/13 01:54:13;;;;;;;1999.90;999.90;;;5.40;99.90;;;;;;4956543;28;20477;-72
2024/02/13 01:56:41;;;;;;;1999.90;999.90;;;5.30;99.90;;;;;;4956590;28;20422;-72
2024/02/13 01:59:08;;;;;;;1999.90;999.90;;;5.20;99.90;;;;;;4956282;28;20414;-72
2024/02/13 02:01:35;;;;;;;1999.90;999.90;;;5.30;99.90;;;;;;4956490;28;20457;-72
2024/02/13 02:04:05;;;;;;;1999.90;999.90;;;5.20;99.90;;;;;;4956289;28;20813;-72
2024/02/13 02:06:31;;;;;;;1999.90;999.90;;;5.20;99.90;;;;;;4956544;28;20450;-72
2024/02/13 02:08:57;;;;;;;1999.90;999.90;;;5.10;99.90;;;;;;4956107;28;20449;-72
2024/02/13 02:11:23;;;;;;;1999.90;999.90;;;5.20;99.90;;;;;;4956292;28;20178;-71
2024/02/13 02:13:49;;;;;;;1999.90;999.90;;;5.20;99.90;;;;;;4956063;28;20458;-73
2024/02/13 02:16:15;;;;;;;1999.90;999.90;;;5.10;99.90;;;;;;4956148;28;20411;-71
2024/02/13 02:18:41;;;;;;;1999.90;999.90;;;5.20;99.90;;;;;;4956161;28;20469;-72
2024/02/13 02:21:07;;;;;;;1999.90;999.90;;;5.20;99.90;;;;;;4955983;28;20415;-71
2024/02/13 02:23:34;;;;;;;1999.90;999.90;;;5.30;99.90;;;;;;4955977;28;20754;-71
2024/02/13 02:26:04;;;;;;;1999.90;999.90;;;5.30;99.90;;;;;;4956069;28;20461;-71
2024/02/13 02:28:30;;;;;;;1999.90;999.90;;;5.40;99.90;;;;;;4955938;28;20421;-72
2024/02/13 02:30:55;;;;;;;1999.90;999.90;;;5.40;99.90;;;;;;4955658;28;20411;-72
2024/02/13 02:33:21;;;;;;;1999.90;999.90;;;5.50;99.90;;;;;;4955755;28;20474;-71
2024/02/13 02:35:48;;;;;;;1999.90;999.90;;;5.40;99.90;;;;;;4955878;28;20182;-71
2024/02/13 02:38:15;;;;;;;1999.90;999.90;;;5.50;99.90;;;;;;4955792;28;20923;-73
2024/02/13 02:40:40;;;;;;;1999.90;999.90;;;5.30;99.90;;;;;;4955552;28;20411;-73
2024/02/13 02:43:06;;;;;;;1999.90;999.90;;;5.20;99.90;;;;;;4955520;28;20473;-73
2024/02/13 02:45:33;;;;;;;1999.90;999.90;;;5.20;99.90;;;;;;4955644;28;20175;-73
2024/02/13 02:47:58;;;;;;;1999.90;999.90;;;5.20;99.90;;;;;;4955669;28;20443;-72
2024/02/13 02:50:24;;;;;;;1999.90;999.90;;;5.10;99.90;;;;;;4955409;28;20903;-72
2024/02/13 02:52:50;;;;;;;1999.90;999.90;;;4.90;99.90;;;;;;4955426;28;20298;-72
2024/02/13 02:55:21;;;;;;;1999.90;999.90;;;5.10;99.90;;;;;;4955520;28;20254;-72
2024/02/13 02:57:47;;;;;;;1999.90;999.90;;;5.10;99.90;;;;;;4955490;28;20556;-73
2024/02/13 03:00:15;;;;;;;1999.90;999.90;;;5.10;99.90;;;;;;4954524;28;20407;-71
2024/02/13 03:02:41;;;;;;;1999.90;999.90;;;5.00;99.90;;;;;;4955304;28;20482;-71
2024/02/13 03:05:09;;;;;;;1999.90;999.90;;;5.10;99.90;;;;;;4955317;28;20895;-71
2024/02/13 03:07:35;;;;;;;1999.90;999.90;;;5.10;99.90;;;;;;4955382;28;20473;-71
2024/02/13 03:10:01;;;;;;;1999.90;999.90;;;5.10;99.90;;;;;;4955121;28;20422;-71
2024/02/13 03:12:26;;;;;;;1999.90;999.90;;;5.00;99.90;;;;;;4955024;28;20513;-71
2024/02/13 03:14:53;;;;;;;1999.90;999.90;;;;;;;;;;4955012;28;20518;-71
2024/02/13 03:17:20;;;;;;;1999.90;999.90;;;4.90;99.90;;;;;;4955063;28;20175;-71
2024/02/13 03:19:46;;;;;;;1999.90;999.90;;;5.20;99.90;;;;;;4954873;28;20490;-72
2024/02/13 03:22:12;;;;;;;1999.90;999.90;;;5.10;99.90;;;;;;4955011;28;20510;-71
2024/02/13 03:24:38;;;;;;;1999.90;999.90;;;5.10;99.90;;;;;;4954910;28;20203;-72
2024/02/13 03:27:03;;;;;;;1999.90;999.90;;;5.20;99.90;;;;;;4954907;28;20198;-71
2024/02/13 03:29:29;;;;;;;1999.90;999.90;;;5.20;99.90;;;;;;4954599;28;20183;-72
2024/02/13 03:31:54;;;;;;;1999.90;999.90;;;5.20;99.90;;;;;;4954903;28;20322;-72
2024/02/13 03:34:21;;;;;;;1999.90;999.90;;;5.30;99.90;;;;;;4954630;28;20215;-72
2024/02/13 03:36:47;;;;;;;1999.90;999.90;;;5.30;99.90;;;;;;4954761;28;20178;-72
2024/02/13 03:39:12;;;;;;;1999.90;999.90;;;5.30;99.90;;;;;;4954452;28;20903;-71
2024/02/13 03:41:42;;;;;;;1999.90;999.90;;;5.30;99.90;;;;;;4954699;28;20409;-71
2024/02/13 03:44:10;;;;;;;1999.90;999.90;;;5.30;99.90;;;;;;4954532;28;20211;-71
2024/02/13 03:46:37;;;;;;;1999.90;999.90;;;5.30;99.90;;;;;;4954523;28;20418;-72
2024/02/13 03:49:03;;;;;;;1999.90;999.90;;;5.40;99.90;;;;;;4954261;28;20422;-70
2024/02/13 03:51:29;;;;;;;1999.90;999.90;;;5.30;99.90;;;;;;4954492;28;20415;-72
2024/02/13 03:53:54;;;;;;;1999.90;999.90;;;5.20;99.90;;;;;;4954299;28;20517;-72
2024/02/13 03:56:20;;;;;;;1999.90;999.90;;;5.20;99.90;;;;;;4954334;28;20197;-72
2024/02/13 03:58:46;;;;;;;1999.90;999.90;;;5.20;99.90;;;;;;4954372;28;20642;-72
2024/02/13 04:01:12;;;;;;;1999.90;999.90;;;5.20;99.90;;;;;;4954543;28;20430;-72
2024/02/13 04:03:38;;;;;;;1999.90;999.90;;;5.70;99.90;;;;;;4954262;28;20670;-71
2024/02/13 04:06:05;;;;;;;1999.90;999.90;;;5.20;99.90;;;;;;4954316;28;20175;-71
2024/02/13 04:08:31;;;;;;;1999.90;999.90;;;5.20;99.90;;;;;;4954297;28;20827;-71
2024/02/13 04:10:57;;;;;;;1999.90;999.90;;;5.10;99.90;;;;;;4953864;28;20415;-71
2024/02/13 04:13:25;;;;;;;1999.90;999.90;;;5.10;99.90;;;;;;4954179;28;20298;-72
2024/02/13 04:15:50;;;;;;;1999.90;999.90;;;5.10;99.90;;;;;;4954095;28;20415;-71
2024/02/13 04:18:16;;;;;;;1999.90;999.90;;;4.90;99.90;;;;;;4954109;28;20409;-71
2024/02/13 04:20:42;;;;;;;1999.90;999.90;;;4.90;99.90;;;;;;4953834;28;20532;-73
2024/02/13 04:23:08;;;;;;;1999.90;999.90;;;4.90;99.90;;;;;;4953983;28;20226;-73
2024/02/13 04:25:33;;;;;;;1999.90;999.90;;;4.80;99.90;;;;;;4953857;28;20854;-73
2024/02/13 04:27:59;;;;;;;1999.90;999.90;;;4.70;99.90;;;;;;4954193;28;20229;-74
2024/02/13 04:30:25;;;;;;;1999.90;999.90;;;4.60;99.90;;;;;;4953735;28;20171;-75
2024/02/13 04:32:50;;;;;;;1999.90;999.90;;;4.60;99.90;;;;;;4953787;28;20199;-72
2024/02/13 04:35:16;;;;;;;1999.90;999.90;;;4.60;99.90;;;;;;4954098;28;20250;-72
2024/02/13 04:37:42;;;;;;;1999.90;999.90;;;;;;;;;;4953992;28;20218;-73
2024/02/13 04:40:09;;;;;;;1999.90;999.90;;;4.50;99.90;;;;;;4953597;29;20403;-72
2024/02/13 04:42:36;;;;;;;1999.90;999.90;;;4.30;99.90;;;;;;4953573;28;20418;-75
2024/02/13 04:45:03;;;;;;;1999.90;999.90;;;4.40;99.90;;;;;;4954345;28;20407;-77
2024/02/13 04:47:30;;;;;;;1999.90;999.90;;;4.40;99.90;;;;;;4954326;28;20406;-77
2024/02/13 04:50:00;;;;;;;1999.90;999.90;;;4.30;99.90;;;;;;4954139;28;20419;-77
2024/02/13 04:52:26;;;;;;;1999.90;999.90;;;4.30;99.90;;;;;;4954209;28;20403;-75
2024/02/13 04:54:53;;;;;;;1999.90;999.90;;;4.20;99.90;;;;;;4953477;28;20431;-75
2024/02/13 04:57:19;;;;;;;1999.90;999.90;;;4.20;99.90;;;;;;4953673;28;20170;-74
2024/02/13 04:59:48;;;;;;;1999.90;999.90;;;4.20;99.90;;;;;;4953589;28;20417;-76
2024/02/13 05:02:18;;;;;;;1999.90;999.90;;;4.20;99.90;;;;;;4953572;28;20175;-73
2024/02/13 05:07:31;;;;;;;1999.90;999.90;;;4.20;99.90;;;;;;4953894;29;20389;-75
2024/02/13 05:09:58;;;;;;;1999.90;999.90;;;4.30;99.90;;;;;;4953225;28;20461;-75
2024/02/13 05:12:26;;;;;;;1999.90;999.90;;;4.10;99.90;;;;;;4953513;28;20418;-75
2024/02/13 05:14:57;;;;;;;1999.90;999.90;;;3.70;99.90;;;;;;4953380;28;20442;-74
2024/02/13 05:17:24;;;;;;;1999.90;999.90;;;4.10;99.90;;;;;;4953469;28;20406;-75
2024/02/13 05:19:49;;;;;;;1999.90;999.90;;;4.10;99.90;;;;;;4953275;28;20171;-75
2024/02/13 05:22:16;;;;;;;1999.90;999.90;;;4.00;99.90;;;;;;4953683;28;20402;-75
2024/02/13 05:24:45;;;;;;;1999.90;999.90;;;4.00;99.90;;;;;;4957021;28;20958;-74
2024/02/13 05:27:13;;;;;;;1999.90;999.90;;;4.00;99.90;;;;;;4957080;28;20414;-76
2024/02/13 05:29:39;;;;;;;1999.90;999.90;;;4.00;99.90;;;;;;4956864;28;20411;-76
2024/02/13 05:32:05;;;;;;;1999.90;999.90;;;4.00;99.90;;;;;;4957008;28;20874;-76
2024/02/13 05:34:32;;;;;;;1999.90;999.90;;;3.90;99.90;;;;;;4956873;28;20802;-76
2024/02/13 05:36:58;;;;;;;1999.90;999.90;;;4.00;99.90;;;;;;4957157;28;20505;-76
2024/02/13 05:39:25;;;;;;;1999.90;999.90;;;3.90;99.90;;;;;;4956771;28;20801;-76
2024/02/13 05:41:51;;;;;;;1999.90;999.90;;;4.00;99.90;;;;;;4956947;28;20417;-75
2024/02/13 05:44:17;;;;;;;1999.90;999.90;;;4.00;99.90;;;;;;4956679;28;20485;-74
2024/02/13 05:46:43;;;;;;;1999.90;999.90;;;3.20;99.90;;;;;;4956742;28;20493;-75
2024/02/13 05:49:08;;;;;;;1999.90;999.90;;;4.00;99.90;;;;;;4956555;28;20171;-75
2024/02/13 05:51:34;;;;;;;1999.90;999.90;;;4.00;99.90;;;;;;4956724;28;20421;-74
2024/02/13 05:54:04;;;;;;;1999.90;999.90;;;3.90;99.90;;;;;;4956425;28;20474;-74
2024/02/13 05:56:35;;;;;;;1999.90;999.90;;;4.00;99.90;;;;;;4956751;28;20473;-74
2024/02/13 05:59:03;;;;;;;1999.90;999.90;;;4.00;99.90;;;;;;4956320;28;20399;-74
2024/02/13 06:01:29;;;;;;;1999.90;999.90;;;4.00;99.90;;;;;;4956426;28;21110;-75
2024/02/13 06:03:57;;;;;;;1999.90;999.90;;;3.40;99.90;;;;;;4956321;28;20494;-74
2024/02/13 06:06:25;;;;;;;1999.90;999.90;;;4.00;99.90;;;;;;4956559;28;20953;-75
2024/02/13 06:08:53;;;;;;;1999.90;999.90;;;4.10;99.90;;;;;;4956092;28;20407;-76
2024/02/13 06:11:18;;;;;;;1999.90;999.90;;;4.00;99.90;;;;;;4956372;28;20402;-75
2024/02/13 06:13:45;;;;;;;1999.90;999.90;;;4.00;99.90;;;;;;4956054;28;21036;-75
2024/02/13 06:16:12;;;;;;;1999.90;999.90;;;4.00;99.90;;;;;;4956185;28;20411;-76
2024/02/13 06:18:37;;;;;;;1999.90;999.90;;;4.00;99.90;;;;;;4956319;28;20402;-75
2024/02/13 06:21:04;;;;;;;1999.90;999.90;;;4.00;99.90;;;;;;4955878;28;20922;-76
2024/02/13 06:23:32;;;;;;;1999.90;999.90;;;3.90;99.90;;;;;;4956028;28;20586;-74
2024/02/13 06:25:58;;;;;;;1999.90;999.90;;;4.00;99.90;;;;;;4956052;28;20407;-74
2024/02/13 06:28:24;;;;;;;1999.90;999.90;;;3.90;99.90;;;;;;4955972;28;20465;-74
2024/02/13 06:30:50;;;;;;;1999.90;999.90;;;3.90;99.90;;;;;;4955678;28;20494;-72
2024/02/13 06:33:16;;;;;;;1999.90;999.90;;;3.90;99.90;;;;;;4955844;28;20210;-73
2024/02/13 06:35:42;;;;;;;1999.90;999.90;;;3.90;99.90;;;;;;4954888;28;20411;-73
2024/02/13 06:38:07;;;;;;;1999.90;999.90;;;3.90;99.90;;;;;;4955811;28;20171;-74
2024/02/13 06:40:34;;;;;;;1999.90;999.90;;;3.90;99.90;;;;;;4955631;28;20257;-73
2024/02/13 06:43:00;;;;;;;1999.90;999.90;;;3.90;99.90;;;;;;4955487;28;20762;-72
2024/02/13 06:45:27;;;;;;;1999.90;999.90;;;3.90;99.90;;;;;;4955728;28;20419;-71
2024/02/13 06:47:53;;;;;;;1999.90;999.90;;;3.80;99.90;;;;;;4955805;28;20215;-70
2024/02/13 06:50:19;;;;;;;1999.90;999.90;;;3.80;99.90;;;;;;4955376;28;20223;-71
2024/02/13 06:52:50;;;;;;;1999.90;999.90;;;4.20;99.90;;;;;;4955413;28;20443;-70
2024/02/13 06:55:16;;;;;;;1999.90;999.90;;;3.70;99.90;;;;;;4955600;28;20414;-73
2024/02/13 06:57:41;;;;;;;1999.90;999.90;;;3.70;99.90;;;;;;4955398;28;20186;-72
2024/02/13 07:00:08;;;;;;;1999.90;999.90;;;3.60;99.90;;;;;;4955278;28;20411;-72
2024/02/13 07:02:35;;;;;;;1999.90;999.90;;;3.60;99.90;;;;;;4955287;28;20217;-72
2024/02/13 07:05:01;;;;;;;1999.90;999.90;;;3.60;99.90;;;;;;4955493;28;21040;-72
2024/02/13 07:07:27;;;;;;;1999.90;999.90;;;3.60;99.90;;;;;;4955265;28;20423;-72
2024/02/13 07:09:52;;;;;;;1999.90;999.90;;;3.70;99.90;;;;;;4955049;28;20419;-72
2024/02/13 07:12:20;;;;;;;1999.90;999.90;;;4.10;99.90;;;;;;4955152;28;20898;-72
2024/02/13 07:14:46;;;;;;;1999.90;999.90;;;3.70;99.90;;;;;;4955182;28;20466;-72
2024/02/13 07:17:11;;;;;;;1999.90;999.90;;;3.70;99.90;;;;;;4955200;28;20407;-72
2024/02/13 07:19:37;;;;;;;1999.90;999.90;;;3.70;99.90;;;;;;4955027;28;20198;-72
2024/02/13 07:22:02;;;;;;;1999.90;999.90;;;3.80;99.90;;;;;;4955016;28;20178;-72
2024/02/13 07:24:29;;;;;;;1999.90;999.90;;;3.80;99.90;;;;;;4954966;28;20238;-71
2024/02/13 07:26:54;;;;;;;1999.90;999.90;;;3.80;99.90;;;;;;4954910;28;20547;-72
2024/02/13 07:29:20;;;;;;;1999.90;999.90;;;3.80;99.90;;;;;;4954720;28;20415;-71
2024/02/13 07:31:46;;;;;;;1999.90;999.90;;;3.90;99.90;;;;;;4954880;28;20566;-72
2024/02/13 07:34:12;;;;;;;1999.90;999.90;;;4.00;99.90;;;;;;4954720;28;20745;-72
2024/02/13 07:36:38;;;;;;;1999.90;999.90;;;4.00;99.90;;;;;;4954845;28;20495;-73
2024/02/13 07:39:03;;;;;;;1999.90;999.90;;;4.10;99.90;;;;;;4954475;28;20410;-72
2024/02/13 07:41:29;;;;;;;1999.90;999.90;;;4.20;99.90;;;;;;4954652;28;20246;-71
2024/02/13 07:43:55;;;;;;;1999.90;999.90;;;4.30;99.90;;;;;;4954562;28;20217;-71
2024/02/13 07:46:20;;;;;;;1999.90;999.90;;;4.30;99.90;;;;;;4954353;28;20179;-72
2024/02/13 07:48:47;;;;;;;1999.90;999.90;;;4.40;99.90;;;;;;4954433;28;20627;-73
2024/02/13 07:51:14;;;;;;;1999.90;999.90;;;4.40;99.90;;;;;;4954532;28;20177;-71
2024/02/13 07:53:40;;;;;;;1999.90;999.90;;;4.50;99.90;;;;;;4954263;28;20462;-71
2024/02/13 07:56:08;;;;;;;1999.90;999.90;;;4.50;99.90;;;;;;4954429;28;20442;-72
2024/02/13 07:58:33;;;;;;;1999.90;999.90;;;4.50;99.90;;;;;;4954327;28;20415;-72
2024/02/13 08:00:59;;;;;;;1999.90;999.90;;;4.50;99.90;;;;;;4954120;28;20545;-72
2024/02/13 08:03:24;;;;;;;1999.90;999.90;;;4.60;99.90;;;;;;4954263;28;20560;-72
2024/02/13 08:05:50;;;;;;;1999.90;999.90;;;4.70;99.90;;;;;;4954264;28;20218;-71
2024/02/13 08:08:16;;;;;;;1999.90;999.90;;;4.80;99.90;;;;;;4954262;28;20270;-70
2024/02/13 08:10:42;;;;;;;1999.90;999.90;;;4.90;99.90;;;;;;4953930;28;20554;-71
2024/02/13 08:13:09;;;;;;;1999.90;999.90;;;5.00;99.90;;;;;;4953961;28;20207;-71
2024/02/13 08:15:36;;;;;;;1999.90;999.90;;;5.00;99.90;;;;;;4954316;28;20808;-71
2024/02/13 08:18:03;;;;;;;1999.90;999.90;;;5.00;99.90;;;;;;4954149;28;20495;-72
2024/02/13 08:20:28;;;;;;;1999.90;999.90;;;5.10;99.90;;;;;;4953756;28;20469;-72
2024/02/13 08:22:54;;;;;;;1999.90;999.90;;;5.60;99.90;;;;;;4953906;28;20438;-72
2024/02/13 08:25:20;;;;;;;1999.90;999.90;;;5.20;99.90;;;;;;4954045;28;20175;-72
2024/02/13 08:27:45;;;;;;;1999.90;999.90;;;5.20;99.90;;;;;;4953980;28;20574;-72
2024/02/13 08:30:11;;;;;;;1999.90;999.90;;;5.20;99.90;;;;;;4953690;28;20182;-70
2024/02/13 08:32:41;;;;;;;1999.90;999.90;;;5.80;99.90;;;;;;4953725;28;20222;-69
2024/02/13 08:35:08;;;;;;;1999.90;999.90;;;5.30;99.90;;;;;;4953894;28;20411;-70
2024/02/13 08:37:35;;;;;;;1999.90;999.90;;;5.50;99.90;;;;;;4953731;28;20414;-72
2024/02/13 08:40:00;;;;;;;1999.90;999.90;;;5.50;99.90;;;;;;4953541;28;20785;-72
2024/02/13 08:42:26;;;;;;;1999.90;999.90;;;5.70;99.90;;;;;;4953680;28;20441;-72
2024/02/13 08:44:52;;;;;;;1999.90;999.90;;;5.80;99.90;;;;;;4953710;28;20198;-72
2024/02/13 08:47:18;;;;;;;1999.90;999.90;;;5.80;99.90;;;;;;4953825;28;20178;-72
2024/02/13 08:49:44;;;;;;;1999.90;999.90;;;5.90;99.90;;;;;;4953444;28;20906;-71
2024/02/13 08:52:10;;;;;;;1999.90;999.90;;;6.10;99.90;;;;;;4953624;28;20414;-72
2024/02/13 08:54:37;;;;;;;1999.90;999.90;;;6.20;99.90;;;;;;4953507;28;20834;-71
2024/02/13 08:57:03;;;;;;;1999.90;999.90;;;6.30;99.90;;;;;;4953690;28;20438;-70
2024/02/13 08:59:31;;;;;;;1999.90;999.90;;;6.30;99.90;;;;;;4957202;28;20949;-70
2024/02/13 09:01:57;;;;;;;1999.90;999.90;;;6.40;99.90;;;;;;4957745;28;20659;-71
2024/02/13 09:04:23;;;;;;;1999.90;999.90;;;6.50;99.90;;;;;;4957413;28;20483;-71
2024/02/13 09:06:49;;;;;;;1999.90;999.90;;;6.60;99.90;;;;;;4957500;28;20442;-71
2024/02/13 09:09:15;;;;;;;1999.90;999.90;;;6.70;99.90;;;;;;4957258;28;20415;-70
2024/02/13 09:11:41;;;;;;;1999.90;999.90;;;6.80;99.90;;;;;;4957607;28;20417;-71
2024/02/13 09:14:07;;;;;;;1999.90;999.90;;;6.90;99.90;;;;;;4957156;28;20484;-71
2024/02/13 09:16:32;;;;;;;1999.90;999.90;;;7.00;99.90;;;;;;4957419;28;20410;-71
2024/02/13 09:18:58;;;;;;;1999.90;999.90;;;7.00;99.90;;;;;;4957032;28;20985;-71
2024/02/13 09:21:25;;;;;;;1999.90;999.90;;;7.00;99.90;;;;;;4957262;28;20663;-69
2024/02/13 09:23:50;;;;;;;1999.90;999.90;;;7.10;99.90;;;;;;4957328;28;20198;-71
2024/02/13 09:26:16;;;;;;;1999.90;999.90;;;7.00;97.70;;;;;;4957190;28;20993;-72
2024/02/13 09:28:41;;;;;;;1999.90;999.90;;;7.10;96.90;;;;;;4957133;28;20167;-72
2024/02/13 09:31:10;;;;;;;1999.90;999.90;;;7.10;94.10;;;;;;4956885;28;20171;-71
2024/02/13 09:33:36;;;;;;;1999.90;999.90;;;7.20;94.60;;;;;;4956952;28;20605;-72
2024/02/13 09:36:05;;;;;;;1999.90;999.90;;;7.20;93.20;;;;;;4956963;28;20409;-71
2024/02/13 09:38:31;;;;;;;1999.90;999.90;;;7.30;93.80;;;;;;4957138;28;20179;-71
2024/02/13 09:40:56;;;;;;;1999.90;999.90;;;7.30;88.80;;;;;;4956664;28;20493;-71
2024/02/13 09:43:22;;;;;;;1999.90;999.90;;;7.30;90.10;;;;;;4956700;28;20450;-72
2024/02/13 09:45:49;;;;;;;1999.90;999.90;;;7.40;90.60;;;;;;4956829;28;20238;-71
2024/02/13 09:48:24;;;;;;;1999.90;999.90;;;7.40;89.20;;;;;;4956726;28;20494;-70
2024/02/13 09:50:51;;;;;;;1999.90;999.90;;;7.50;85.30;;;;;;4956536;28;20414;-72
2024/02/13 09:53:27;;;;;;;1999.90;999.90;;;7.50;82.00;;;;;;4956504;28;20461;-72
2024/02/13 09:56:00;;;;;;;1999.90;999.90;;;7.60;86.60;;;;;;4956728;28;20405;-71
2024/02/13 09:58:26;;;;;;;1999.90;999.90;;;7.60;80.80;;;;;;4956647;28;20407;-69
2024/02/13 10:00:53;;;;;;;1999.90;999.90;;;7.70;78.10;;;;;;4956336;28;20491;-69
2024/02/13 10:03:18;;;;;;;1999.90;999.90;;;7.80;75.80;;;;;;4956394;28;20426;-69
2024/02/13 10:05:44;;;;;;;1999.90;999.90;;;7.90;76.90;;;;;;4956486;28;20417;-72
2024/02/13 10:08:11;;;;;;;1999.90;999.90;;;7.90;68.60;;;;;;4956331;28;20181;-69
2024/02/13 10:10:37;;;;;;;1999.90;999.90;;;7.90;68.10;;;;;;4956216;28;20206;-69
2024/02/13 10:13:04;;;;;;;1999.90;999.90;;;8.00;71.80;;;;;;4956228;28;20808;-70
2024/02/13 10:15:56;;;;;;;1999.90;999.90;;;8.10;62.50;;;;;;4956255;28;20477;-72
2024/02/13 10:18:24;;;;;;;1999.90;999.90;;;8.20;64.50;;;;;;4955920;28;20419;-71
2024/02/13 10:20:51;;;;;;;1999.90;999.90;;;8.20;57.40;;;;;;4955919;28;20403;-71
2024/02/13 10:23:18;;;;;;;1999.90;999.90;;;8.00;55.80;;;;;;4955999;28;20430;-71
2024/02/13 10:25:44;;;;;;;1999.90;999.90;;;8.10;50.60;;;;;;4956247;28;20510;-71
2024/02/13 10:28:13;;;;;;;1999.90;999.90;;;8.10;58.30;;;;;;4955967;28;20470;-69
2024/02/13 10:30:39;;;;;;;1999.90;999.90;;;8.00;55.70;;;;;;4955849;28;20411;-69
2024/02/13 10:33:09;;;;;;;1999.90;999.90;;;8.10;54.40;;;;;;4955789;28;20557;-69
2024/02/13 10:35:35;;;;;;;1999.90;999.90;;;8.10;52.60;;;;;;4956103;28;20188;-69
2024/02/13 10:38:03;;;;;;;1999.90;999.90;;;8.30;55.10;;;;;;4955981;28;20753;-69
2024/02/13 10:40:29;;;;;;;1999.90;999.90;;;8.40;46.60;;;;;;4955640;28;20478;-71
2024/02/13 10:42:56;;;;;;;1999.90;999.90;;;8.50;48.10;;;;;;4955561;28;20529;-70
2024/02/13 10:45:24;;;;;;;1999.90;999.90;;;8.60;40.70;;;;;;4955718;28;20533;-71
2024/02/13 10:47:54;;;;;;;1999.90;999.90;;;8.50;40.90;;;;;;4955770;28;20439;-71
2024/02/13 10:50:21;;;;;;;1999.90;999.90;;;8.80;42.00;;;;;;4955557;28;20604;-73
2024/02/13 10:52:54;;;;;;;1999.90;999.90;;;9.10;53.80;;;;;;4955813;28;20407;-71
2024/02/13 10:55:21;;;;;;;1999.90;999.90;;;9.20;31.80;;;;;;4955586;28;21040;-71
2024/02/13 10:57:49;;;;;;;1999.90;999.90;;;9.00;33.70;;;;;;4955777;28;20443;-71
2024/02/13 11:00:19;;;;;;;1999.90;999.90;;;9.10;28.60;;;;;;4955350;28;20453;-69
2024/02/13 11:02:47;;;;;;;1999.90;999.90;;;9.40;54.40;;;;;;4955432;28;20503;-70
2024/02/13 11:05:15;;;;;;;1999.90;999.90;;;9.60;32.80;;;;;;4955418;28;20495;-68
2024/02/13 11:07:41;;;;;;;1999.90;999.90;;;9.90;27.40;;;;;;4955279;28;20459;-69
2024/02/13 11:10:08;;;;;;;1999.90;999.90;;;9.90;26.60;;;;;;4954987;28;20449;-70
2024/02/13 11:12:38;;;;;;;1999.90;999.90;;;9.90;23.00;;;;;;4955523;28;20699;-72
2024/02/13 11:15:16;;;;;;;1999.90;999.90;;;10.00;20.80;;;;;;4955269;28;20422;-69
2024/02/13 11:17:47;;;;;;;1999.90;999.90;;;10.30;18.80;;;;;;4955209;28;20448;-70
2024/02/13 11:20:19;;;;;;;1999.90;999.90;;;10.50;15.20;;;;;;4954247;28;20414;-71
2024/02/13 11:23:02;;;;;;;1999.90;999.90;;;10.40;26.20;;;;;;4955058;28;20414;-72
2024/02/13 11:25:28;;;;;;;1999.90;999.90;;;10.70;9.10;;;;;;4952790;28;20849;-71
2024/02/13 11:28:02;;;;;;;1999.90;999.90;;;10.40;6.30;;;;;;4955199;28;20414;-71
2024/02/13 11:30:28;;;;;;;1999.90;999.90;;;10.50;7.90;;;;;;4954634;28;20421;-72
2024/02/13 11:33:01;;;;;;;1999.90;999.90;;;10.70;23.50;;;;;;4954803;28;20435;-72
2024/02/13 11:35:46;;;;;;;1999.90;999.90;;;10.70;5.40;;;;;;4954655;28;20407;-72
2024/02/13 11:38:19;;;;;;;1999.90;999.90;;;11.00;7.70;;;;;;4951099;28;20902;-72
2024/02/13 11:40:49;;;;;;;1999.90;999.90;;;11.40;6.00;;;;;;4953943;28;20776;-72
2024/02/13 11:43:30;;;;;;;1999.90;999.90;;;11.90;1.00;;;;;;4954303;28;20450;-72
2024/02/13 11:45:57;;;;;;;1999.90;999.90;;;12.50;1.00;;;;;;4953990;28;20411;-71
2024/02/13 11:48:25;;;;;;;1999.90;999.90;;;12.60;1.00;;;;;;4954318;28;20916;-71
2024/02/13 11:50:52;;;;;;;1999.90;999.90;;;12.60;1.00;;;;;;4953651;28;20419;-70
2024/02/13 11:53:18;;;;;;;1999.90;999.90;;;12.90;1.00;;;;;;4953878;28;20513;-70
2024/02/13 11:55:45;;;;;;;1999.90;999.90;;;13.30;1.00;;;;;;4954059;28;20440;-71
2024/02/13 11:58:21;;;;;;;1999.90;999.90;;;13.70;1.00;;;;;;4953846;28;20411;-71
2024/02/13 12:01:03;;;;;;;1999.90;999.90;;;14.00;1.00;;;;;;4952546;28;20442;-70
2024/02/13 12:03:30;;;;;;;1999.90;999.90;;;13.90;1.00;;;;;;4934710;29;20434;-70
2024/02/13 12:06:01;;;;;;;1999.90;999.90;;;14.10;1.00;;;;;;4934633;29;20507;-71
2024/02/13 12:08:30;;;;;;;1999.90;999.90;;;14.20;1.00;;;;;;4934313;29;20944;-71
2024/02/13 12:11:03;;;;;;;1999.90;999.90;;;14.00;1.00;;;;;;4934334;29;20771;-70